LFRSLFRI

Guest
Details From LFRS - Nantes_Atlantique
To LFRI - La Roche sur Yon les Ajoncs
Flight Number -
Tags generated
Created
Modified
Stats Distance 29 nm / 55 km
Max Altitude 100 ft / 30 m
Waypoints 3
Social Downloads 0
Likes 0
Share VATSIM

Download

Looking for another format? Having issues loading an existing format? Contact us
Advertisement - Login to hide

Notes

Basic altitude profile: - Ascent Rate: 2500ft/min - Ascent Speed: 250kts - Cruise Altitude: 35000ft - Cruise Speed: 420kts - Descent Rate: 1500ft/min - Descent Speed: 250kts Options: - Use NATs: yes - Use PACOTS: yes - Use low airways: yes - Use high airways: yes

Route

LFRS NTS LFRI

ID Type Via Altitude Latitude Longitude Leg Dist Tot Dist Heading (true) Name
O LFRS APT - 0 ft / 0 m 47.15604˚ -1.61119˚ - 0 nm - Nantes_Atlantique
NTS VOR - 100 ft / 30 m 47.16086˚ -1.61296˚ 0 nm 0 nm 346° / 346° NANTES ATLANTIQUE VOR-DME
O LFRI APT - 0 ft / 0 m 46.70194˚ -1.37862˚ 29 nm 29 nm 161° / 161° La Roche sur Yon les Ajoncs

Altitude Profile

Advertisement - Login to hide

LFRS

Details ICAO LFRS (NTE)
Name Nantes_Atlantique
Region France
Timezone Europe/Paris (UTC+1.0)
Stats Elevation 89 ft / 27 m (AMSL)
Location 47.156040° -1.611186°
Runways 2
Magnetic Variation 0.510° W

METAR

LFRS 150300Z AUTO 29008KT CAVOK 07/04 Q1002 NOSIG

Decode

TAF

TAF LFRS 142300Z 1500/1606 27010KT 9999 SCT020 BKN030 TEMPO 1507/1509 28015G30KT 3000 SHRA SCT010 SCT030CB BKN040TCU TEMPO 1511/1515 30015G25KT 5000 SHRA BKN040TCU

Decode

Departure Runways

ID Width Length Bearing (true) Bearing (mag) Surface Threshold Offset Overrun Length
03 148 ft / 45 m 9,526 ft / 2,903 m 27.35° 27.86° Asphalt 0 ft / 0 m 0 ft / 0 m
13 100 ft / 30 m 1,999 ft / 609 m 125.55° 126.06° Concrete 0 ft / 0 m 0 ft / 0 m
21 148 ft / 45 m 9,526 ft / 2,903 m 207.37° 207.88° Asphalt 689 ft / 210 m 0 ft / 0 m
31 100 ft / 30 m 1,999 ft / 609 m 305.56° 306.07° Concrete 0 ft / 0 m 0 ft / 0 m

LFRI

Details ICAO LFRI (EDM)
Name La Roche sur Yon les Ajoncs
Region France
Timezone Europe/Paris (UTC+1.0)
Stats Elevation 299 ft / 91 m (AMSL)
Location 46.701944° -1.378625°
Runways 1
Magnetic Variation 0.399° W

METAR

LFRI 150300Z AUTO 26008KT 9999 ///TCU 06/04 Q1002

Decode

TAF

TAF LFRI 142100Z 1421/1518 CNL

Decode

Destination Runways

ID Width Length Bearing (true) Bearing (mag) Surface Threshold Offset Overrun Length
10 98 ft / 30 m 5,073 ft / 1,546 m 101.40° 101.80° Asphalt 0 ft / 0 m 0 ft / 0 m
28 98 ft / 30 m 5,073 ft / 1,546 m 281.42° 281.82° Asphalt 951 ft / 290 m 0 ft / 0 m

Approach Navaids

Runway Type Ident Frequency Range Bearing (true) Bearing (mag) Slope Elevation
28 Localiser LRY 111.90 MHz 18 nm / 33 km 281.41° 281.81° - 281 ft / 86 m (AMSL)
28 Glidescope LRY 111.90 MHz 10 nm / 19 km 281.41° 281.81° 3.00° 335 ft / 102 m (AMSL)
28 DME LRY 111.90 MHz 18 nm / 33 km - - - 335 ft / 102 m (AMSL)

Popular Alternatives